Time;durP1;ratioP1;P1;durP2;ratioP2;P2;SDS_P1;SDS_P2;PMS_P1;PMS_P2;Temp;Humidity;BMP_temperature;BMP_pressure;BME280_temperature;BME280_humidity;BME280_pressure;Samples;Min_cycle;Max_cycle;Signal;HPM_P1;HPM_P2
2024/04/12 00:01:03;;;;;;;4.32;3.28;;;19.60;59.40;;;;;;5260932;26;20012;-69
2024/04/12 00:03:29;;;;;;;4.95;3.40;;;19.60;59.40;;;;;;5257273;26;20350;-69
2024/04/12 00:06:05;;;;;;;4.25;3.00;;;19.60;59.40;;;;;;5265658;26;20399;-69
2024/04/12 00:08:32;;;;;;;5.20;3.45;;;19.60;59.40;;;;;;5257413;26;20121;-66
2024/04/12 00:11:00;;;;;;;3.90;2.88;;;19.60;59.40;;;;;;5262946;26;20041;-68
2024/04/12 00:13:26;;;;;;;5.22;3.03;;;19.60;59.50;;;;;;5253258;26;20014;-68
2024/04/12 00:15:58;;;;;;;3.78;2.88;;;19.50;59.40;;;;;;5266697;26;20017;-68
2024/04/12 00:18:28;;;;;;;4.55;2.90;;;19.50;59.40;;;;;;5253368;26;20476;-67
2024/04/12 00:20:58;;;;;;;5.28;3.13;;;19.60;59.50;;;;;;5261261;26;20467;-69
2024/04/12 00:23:26;;;;;;;3.90;2.58;;;19.50;59.40;;;;;;5254796;26;20496;-67
2024/04/12 00:25:55;;;;;;;4.95;3.00;;;19.50;60.00;;;;;;5267588;26;20044;-68
2024/04/12 00:28:22;;;;;;;3.72;2.50;;;19.50;59.40;;;;;;5250783;26;20092;-68
2024/04/12 00:30:48;;;;;;;3.88;2.88;;;19.50;60.10;;;;;;5253737;26;20003;-68
2024/04/12 00:33:18;;;;;;;4.47;3.05;;;19.60;59.50;;;;;;5240040;26;20469;-67
2024/04/12 00:35:49;;;;;;;4.80;2.78;;;19.50;59.40;;;;;;5250699;26;20350;-67
2024/04/12 00:38:16;;;;;;;3.28;2.72;;;19.50;59.40;;;;;;5244187;26;20042;-69
2024/04/12 00:40:46;;;;;;;4.95;2.28;;;19.50;59.50;;;;;;5256792;26;20057;-68
2024/04/12 00:43:17;;;;;;;3.15;2.30;;;19.50;59.40;;;;;;5245865;26;20013;-67
2024/04/12 00:45:51;;;;;;;2.72;1.98;;;19.50;59.40;;;;;;5259970;26;20615;-67
2024/04/12 00:48:21;;;;;;;3.65;2.30;;;19.50;59.40;;;;;;5250180;26;20018;-68
2024/04/12 00:50:50;;;;;;;3.78;2.50;;;19.50;59.40;;;;;;5255685;26;20025;-67
2024/04/12 00:53:28;;;;;;;4.38;2.47;;;19.50;59.50;;;;;;5240721;26;20345;-68
2024/04/12 00:56:00;;;;;;;2.38;1.95;;;19.50;59.40;;;;;;5248343;26;20125;-68
2024/04/12 00:58:32;;;;;;;3.00;2.20;;;19.50;59.40;;;;;;5243016;26;20701;-68
2024/04/12 01:01:11;;;;;;;3.10;1.83;;;19.40;59.40;;;;;;5263505;26;20001;-67
2024/04/12 01:03:45;;;;;;;2.40;1.90;;;19.40;59.40;;;;;;5259394;26;20044;-69
2024/04/12 01:06:20;;;;;;;2.93;2.00;;;19.40;59.40;;;;;;5266072;26;20002;-68
2024/04/12 01:08:46;;;;;;;2.85;2.05;;;19.40;59.40;;;;;;5268832;26;20229;-67
2024/04/12 01:11:13;;;;;;;4.13;2.10;;;19.40;59.40;;;;;;5252854;26;20042;-67
2024/04/12 01:13:40;;;;;;;3.60;2.00;;;19.50;59.50;;;;;;5260390;26;20006;-67
2024/04/12 01:16:06;;;;;;;1.98;1.70;;;19.40;59.60;;;;;;5261430;26;20125;-68
2024/04/12 01:18:35;;;;;;;3.63;2.08;;;19.40;59.50;;;;;;5259461;26;20007;-67
2024/04/12 01:21:06;;;;;;;3.78;1.75;;;19.40;59.40;;;;;;5261905;26;20088;-67
2024/04/12 01:23:33;;;;;;;2.95;1.85;;;19.40;59.50;;;;;;5251829;26;20018;-68
2024/04/12 01:25:59;;;;;;;2.22;1.95;;;19.40;59.40;;;;;;5254303;26;20460;-67
2024/04/12 01:28:26;;;;;;;2.08;1.85;;;19.40;59.50;;;;;;5257740;26;20007;-68
2024/04/12 01:30:59;;;;;;;4.03;1.45;;;19.40;59.50;;;;;;5265517;26;20053;-69
2024/04/12 01:33:25;;;;;;;4.45;2.72;;;19.40;59.50;;;;;;5263986;26;20014;-68
2024/04/12 01:35:52;;;;;;;2.28;1.55;;;19.40;59.50;;;;;;5258110;26;20354;-68
2024/04/12 01:38:20;;;;;;;2.13;1.48;;;19.40;59.50;;;;;;5256402;26;20021;-68
2024/04/12 01:40:46;;;;;;;3.28;1.75;;;19.40;59.50;;;;;;5263797;26;20461;-67
2024/04/12 01:43:18;;;;;;;2.15;1.65;;;19.40;59.50;;;;;;5256653;26;20006;-68
2024/04/12 01:45:48;;;;;;;2.20;1.60;;;19.40;59.50;;;;;;5266093;26;20003;-68
2024/04/12 01:48:14;;;;;;;1.67;1.52;;;19.40;59.50;;;;;;5263471;26;20025;-68
2024/04/12 01:50:40;;;;;;;2.03;1.50;;;19.40;59.50;;;;;;5258186;26;20013;-69
2024/04/12 01:53:09;;;;;;;1.42;1.33;;;19.40;60.20;;;;;;5259897;26;20017;-68
2024/04/12 01:55:39;;;;;;;1.70;1.23;;;19.30;59.50;;;;;;5259567;26;20017;-67
2024/04/12 01:58:04;;;;;;;2.35;1.40;;;19.40;59.50;;;;;;5268276;26;20002;-68
2024/04/12 02:00:32;;;;;;;2.80;1.38;;;19.40;59.60;;;;;;5248693;26;20002;-68
2024/04/12 02:03:02;;;;;;;1.70;1.40;;;19.40;59.70;;;;;;5255159;26;20330;-69
2024/04/12 02:05:34;;;;;;;2.17;1.42;;;19.40;59.50;;;;;;5246461;26;19998;-68
2024/04/12 02:08:16;;;;;;;1.80;1.35;;;19.40;59.50;;;;;;5247455;26;20018;-68
2024/04/12 02:10:46;;;;;;;3.50;1.55;;;19.40;59.40;;;;;;5231503;26;20021;-70
2024/04/12 02:13:17;;;;;;;1.88;1.33;;;19.50;59.40;;;;;;5261327;26;20464;-67
2024/04/12 02:15:51;;;;;;;2.75;1.52;;;19.50;59.30;;;;;;5257784;26;20533;-67
2024/04/12 02:18:19;;;;;;;2.28;1.33;;;19.60;59.10;;;;;;5251642;26;20021;-69
2024/04/12 02:20:46;;;;;;;2.47;1.58;;;19.60;58.90;;;;;;5252914;26;20007;-68
2024/04/12 02:23:16;;;;;;;1.45;1.08;;;19.70;58.80;;;;;;5264339;26;20433;-67
2024/04/12 02:25:43;;;;;;;1.30;1.20;;;19.80;58.70;;;;;;5265769;26;20002;-68
2024/04/12 02:28:11;;;;;;;2.08;1.30;;;19.80;58.50;;;;;;5253518;26;20014;-67
2024/04/12 02:30:53;;;;;;;3.05;1.17;;;19.90;58.40;;;;;;5253273;26;20027;-67
2024/04/12 02:33:20;;;;;;;1.80;1.20;;;19.90;58.30;;;;;;5260556;26;20068;-68
2024/04/12 02:35:46;;;;;;;1.38;1.17;;;20.00;58.20;;;;;;5254549;26;20042;-68
2024/04/12 02:38:21;;;;;;;1.67;1.20;;;20.00;58.10;;;;;;5261583;26;19998;-67
2024/04/12 02:40:50;;;;;;;1.93;1.30;;;20.10;58.10;;;;;;5270127;26;20090;-69
2024/04/12 02:43:16;;;;;;;1.17;1.02;;;20.10;58.00;;;;;;5262828;26;20065;-69
2024/04/12 02:45:57;;;;;;;2.45;1.05;;;20.10;57.80;;;;;;5262631;26;20002;-67
2024/04/12 02:48:23;;;;;;;2.78;1.40;;;20.20;57.80;;;;;;5263689;26;20477;-67
2024/04/12 02:50:53;;;;;;;2.05;1.17;;;20.20;57.80;;;;;;5255687;26;20054;-67
2024/04/12 02:53:24;;;;;;;1.25;0.90;;;20.30;57.70;;;;;;5263828;26;20006;-68
2024/04/12 02:56:08;;;;;;;1.33;0.90;;;20.30;57.70;;;;;;5257026;26;20102;-67
2024/04/12 02:58:44;;;;;;;1.85;1.27;;;20.30;57.80;;;;;;5265520;26;20006;-67
2024/04/12 03:01:13;;;;;;;1.30;1.02;;;20.30;57.50;;;;;;5252389;26;20006;-67
2024/04/12 03:03:58;;;;;;;1.42;1.25;;;20.30;57.50;;;;;;5227314;26;20010;-69
2024/04/12 03:06:32;;;;;;;2.30;1.00;;;20.30;57.50;;;;;;5241307;26;19999;-69
2024/04/12 03:08:59;;;;;;;2.10;1.08;;;20.30;57.60;;;;;;5264560;26;20800;-69
2024/04/12 03:11:29;;;;;;;1.38;1.00;;;20.30;57.60;;;;;;5256366;26;20047;-67
2024/04/12 03:14:09;;;;;;;2.10;1.23;;;20.30;57.60;;;;;;5268829;26;19998;-68
2024/04/12 03:16:40;;;;;;;2.38;1.15;;;20.30;57.60;;;;;;5264973;26;20049;-66
2024/04/12 03:19:07;;;;;;;3.20;1.17;;;20.30;57.70;;;;;;5264164;26;20017;-67
2024/04/12 03:21:34;;;;;;;1.40;1.10;;;20.30;57.70;;;;;;5250916;26;19999;-67
2024/04/12 03:24:01;;;;;;;1.83;1.05;;;20.30;57.80;;;;;;5264454;26;20033;-66
2024/04/12 03:26:27;;;;;;;1.92;1.20;;;20.20;57.80;;;;;;5260819;26;20014;-67
2024/04/12 03:28:58;;;;;;;1.20;0.85;;;20.20;57.80;;;;;;5257425;26;20333;-67
2024/04/12 03:31:27;;;;;;;1.08;0.90;;;20.20;57.80;;;;;;5264878;26;19998;-67
2024/04/12 03:33:56;;;;;;;1.02;0.77;;;20.10;57.90;;;;;;5265458;26;20343;-68
2024/04/12 03:36:27;;;;;;;1.25;0.98;;;20.10;58.00;;;;;;5264202;26;20003;-67
2024/04/12 03:42:08;;;;;;;1.70;1.00;;;20.10;58.00;;;;;;5257314;26;20074;-68
2024/04/12 03:44:36;;;;;;;2.28;0.82;;;20.10;58.10;;;;;;5270306;26;20526;-66
2024/04/12 03:47:07;;;;;;;1.55;0.73;;;20.10;58.20;;;;;;5281738;26;20002;-68
2024/04/12 03:49:34;;;;;;;1.40;0.93;;;20.10;58.10;;;;;;5255977;26;19999;-67
2024/04/12 03:52:00;;;;;;;1.88;1.00;;;20.10;58.20;;;;;;5265871;26;20042;-67
2024/04/12 03:54:26;;;;;;;1.83;0.85;;;20.00;58.20;;;;;;5267730;26;20011;-68
2024/04/12 03:57:06;;;;;;;1.33;1.13;;;20.00;58.30;;;;;;5265168;26;20013;-68
2024/04/12 03:59:36;;;;;;;1.10;0.90;;;20.00;58.30;;;;;;5251914;26;20068;-67
2024/04/12 04:02:13;;;;;;;0.93;0.75;;;20.00;58.30;;;;;;5264644;26;20083;-66
2024/04/12 04:04:44;;;;;;;2.28;0.90;;;20.00;58.30;;;;;;5261659;26;20086;-67
2024/04/12 04:07:14;;;;;;;2.00;0.88;;;20.00;59.00;;;;;;5267242;26;20021;-68
2024/04/12 04:09:42;;;;;;;1.65;1.00;;;19.90;58.40;;;;;;5256975;26;20006;-67
2024/04/12 04:12:10;;;;;;;1.70;1.00;;;19.90;58.40;;;;;;5256157;26;20006;-68
2024/04/12 04:14:36;;;;;;;1.15;1.00;;;19.90;58.40;;;;;;5255995;26;21461;-66
2024/04/12 04:17:02;;;;;;;1.38;0.80;;;19.90;58.40;;;;;;5255802;26;20020;-68
2024/04/12 04:19:35;;;;;;;2.20;0.93;;;19.90;58.40;;;;;;5257003;26;20027;-66
2024/04/12 04:22:05;;;;;;;1.73;0.93;;;19.90;58.40;;;;;;5267871;26;20020;-64
2024/04/12 04:24:34;;;;;;;1.25;0.90;;;19.90;58.40;;;;;;5252892;26;20034;-68
2024/04/12 04:27:02;;;;;;;1.40;1.00;;;19.90;58.40;;;;;;5276592;26;20006;-67
2024/04/12 04:29:28;;;;;;;1.98;1.00;;;19.90;58.30;;;;;;5266306;26;20021;-68
2024/04/12 04:31:54;;;;;;;1.10;0.90;;;19.90;58.40;;;;;;5261618;26;20006;-67
2024/04/12 04:34:22;;;;;;;1.17;0.85;;;19.90;58.40;;;;;;5267015;26;20003;-66
2024/04/12 04:36:55;;;;;;;1.00;0.70;;;19.90;58.30;;;;;;5273020;26;20010;-67
2024/04/12 04:39:23;;;;;;;1.13;0.88;;;19.90;58.40;;;;;;5275492;26;20010;-64
2024/04/12 04:41:50;;;;;;;2.00;1.13;;;19.90;58.40;;;;;;5271223;26;20014;-64
2024/04/12 04:44:16;;;;;;;1.17;0.95;;;19.90;58.40;;;;;;5273269;26;20117;-66
2024/04/12 04:46:51;;;;;;;1.33;0.90;;;19.90;58.40;;;;;;5265100;26;20006;-65
2024/04/12 04:49:19;;;;;;;1.08;0.82;;;19.90;58.40;;;;;;5264003;26;20001;-66
2024/04/12 04:51:45;;;;;;;0.75;0.63;;;19.90;58.40;;;;;;5269311;26;20397;-68
2024/04/12 04:54:13;;;;;;;1.33;0.90;;;19.90;58.40;;;;;;5270817;26;20006;-64
2024/04/12 04:56:43;;;;;;;0.98;0.73;;;19.90;58.30;;;;;;5264577;26;20022;-66
2024/04/12 04:59:09;;;;;;;1.00;0.95;;;19.90;58.40;;;;;;5279883;26;20481;-67
2024/04/12 05:01:35;;;;;;;1.42;0.70;;;19.90;58.40;;;;;;5267589;26;20007;-67
2024/04/12 05:04:01;;;;;;;2.17;1.13;;;19.80;58.40;;;;;;5262121;26;20021;-67
2024/04/12 05:06:27;;;;;;;1.05;0.90;;;19.80;58.40;;;;;;5272198;26;20049;-67
2024/04/12 05:08:55;;;;;;;2.55;0.85;;;19.80;58.40;;;;;;5258606;26;20081;-69
2024/04/12 05:11:21;;;;;;;0.95;0.70;;;19.80;58.40;;;;;;5268981;26;20062;-67
2024/04/12 05:13:49;;;;;;;2.30;0.93;;;19.80;58.50;;;;;;5246469;26;21259;-66
2024/04/12 05:16:19;;;;;;;1.05;0.80;;;19.80;58.40;;;;;;5259325;26;20008;-66
2024/04/12 05:18:48;;;;;;;1.63;1.05;;;19.80;58.40;;;;;;5270172;26;20003;-66
2024/04/12 05:21:15;;;;;;;1.20;0.90;;;19.80;58.50;;;;;;5267079;26;20017;-69
2024/04/12 05:23:40;;;;;;;1.90;1.02;;;19.80;58.50;;;;;;5254882;26;19999;-67
2024/04/12 05:26:06;;;;;;;1.95;0.82;;;19.80;58.50;;;;;;5264768;26;20124;-66
2024/04/12 05:28:33;;;;;;;2.30;1.25;;;19.80;58.50;;;;;;5265469;26;20003;-67
2024/04/12 05:30:59;;;;;;;2.50;1.00;;;19.80;58.60;;;;;;5270276;26;20105;-69
2024/04/12 05:33:27;;;;;;;1.60;1.00;;;19.80;58.60;;;;;;5259343;26;20027;-68
2024/04/12 05:35:52;;;;;;;1.38;0.80;;;19.80;58.60;;;;;;5295663;26;20014;-68
2024/04/12 05:38:21;;;;;;;1.67;0.90;;;19.80;58.60;;;;;;5265226;26;20030;-65
2024/04/12 05:40:57;;;;;;;1.92;0.95;;;19.80;58.70;;;;;;5257447;26;20003;-68
2024/04/12 05:43:22;;;;;;;1.55;1.15;;;19.80;58.70;;;;;;5262701;26;20037;-66
2024/04/12 05:45:50;;;;;;;2.08;1.10;;;19.70;58.60;;;;;;5274396;26;20121;-68
2024/04/12 05:48:16;;;;;;;3.08;1.00;;;19.80;58.60;;;;;;5278340;26;20016;-68
2024/04/12 05:50:50;;;;;;;1.23;1.10;;;19.80;58.70;;;;;;5268927;26;20392;-68
2024/04/12 05:53:18;;;;;;;1.15;1.00;;;19.80;58.70;;;;;;5278288;26;20002;-68
2024/04/12 05:55:44;;;;;;;1.67;1.15;;;19.80;58.70;;;;;;5276046;26;20085;-68
2024/04/12 05:58:23;;;;;;;2.65;0.90;;;19.80;58.70;;;;;;5280500;26;20249;-66
2024/04/12 06:00:49;;;;;;;2.15;1.00;;;19.80;58.70;;;;;;5261411;26;20347;-67
2024/04/12 06:03:14;;;;;;;1.65;1.13;;;19.80;58.70;;;;;;5273198;26;20071;-70
2024/04/12 06:05:46;;;;;;;2.33;1.05;;;19.80;58.60;;;;;;5273813;26;20013;-68
2024/04/12 06:08:14;;;;;;;1.58;1.00;;;19.80;58.60;;;;;;5267618;26;20338;-65
2024/04/12 06:10:44;;;;;;;1.65;1.00;;;19.80;58.60;;;;;;5274411;26;19999;-67
2024/04/12 06:13:10;;;;;;;2.58;0.90;;;19.80;58.60;;;;;;5261371;26;20006;-68
2024/04/12 06:15:36;;;;;;;2.42;1.10;;;19.80;58.50;;;;;;5264170;26;20002;-67
2024/04/12 06:18:05;;;;;;;1.58;1.00;;;19.80;58.50;;;;;;5277257;26;20473;-68
2024/04/12 06:20:31;;;;;;;2.53;1.00;;;19.80;58.50;;;;;;5278041;26;20005;-70
2024/04/12 06:23:06;;;;;;;2.13;1.00;;;19.90;58.50;;;;;;5264869;26;20058;-70
2024/04/12 06:25:58;;;;;;;;;;;19.90;58.50;;;;;;5271927;26;20002;-68
2024/04/12 06:28:24;;;;;;;2.08;1.30;;;19.90;58.40;;;;;;5269805;26;19927;-68
2024/04/12 06:30:52;;;;;;;2.95;1.30;;;19.90;58.40;;;;;;5270959;26;20003;-69
2024/04/12 06:33:20;;;;;;;2.50;1.75;;;19.90;58.40;;;;;;5273103;26;20095;-67
2024/04/12 06:35:46;;;;;;;5.38;2.55;;;20.00;58.40;;;;;;5263891;26;20014;-69
2024/04/12 06:38:17;;;;;;;9.20;3.85;;;20.00;58.50;;;;;;5267573;26;20017;-67
2024/04/12 06:40:53;;;;;;;8.82;4.75;;;20.00;58.60;;;;;;5267361;26;21105;-68
2024/04/12 06:43:20;;;;;;;16.75;7.82;;;20.00;58.60;;;;;;5241046;26;20010;-69
2024/04/12 06:46:00;;;;;;;21.38;10.70;;;20.00;58.60;;;;;;5259169;26;20017;-67
2024/04/12 06:48:26;;;;;;;27.73;13.30;;;20.00;58.60;;;;;;5250540;26;19998;-68
2024/04/12 06:50:56;;;;;;;26.20;14.35;;;20.00;58.60;;;;;;5256462;26;19994;-69
2024/04/12 06:53:22;;;;;;;36.22;16.77;;;20.00;58.70;;;;;;5249909;26;20506;-68
2024/04/12 06:55:59;;;;;;;31.67;16.65;;;20.00;58.70;;;;;;5257358;26;20006;-68
2024/04/12 06:58:25;;;;;;;35.58;17.08;;;20.00;58.60;;;;;;5248277;26;20006;-68
2024/04/12 07:00:54;;;;;;;33.67;16.13;;;20.00;58.70;;;;;;5256273;26;20351;-67
2024/04/12 07:03:22;;;;;;;31.33;16.02;;;19.90;58.70;;;;;;5246030;26;20003;-69
2024/04/12 07:05:53;;;;;;;32.60;17.10;;;19.90;58.80;;;;;;5252618;26;20358;-70
2024/04/12 07:08:21;;;;;;;26.80;15.00;;;19.90;58.80;;;;;;5252923;26;20019;-69
2024/04/12 07:10:50;;;;;;;32.28;16.17;;;19.90;58.80;;;;;;5243098;26;20002;-70
2024/04/12 07:13:16;;;;;;;28.90;16.52;;;19.90;58.90;;;;;;5251682;26;20002;-69
2024/04/12 07:15:45;;;;;;;29.45;15.93;;;19.80;58.90;;;;;;5255873;26;20010;-68
2024/04/12 07:18:11;;;;;;;31.98;17.67;;;19.90;59.00;;;;;;5246327;26;20006;-70
2024/04/12 07:20:40;;;;;;;28.60;16.70;;;19.80;58.90;;;;;;5253763;26;20029;-69
2024/04/12 07:23:08;;;;;;;31.05;18.00;;;19.80;59.00;;;;;;5253469;26;20063;-69
2024/04/12 07:25:34;;;;;;;36.63;17.52;;;19.80;59.00;;;;;;5253776;26;20042;-69
2024/04/12 07:28:00;;;;;;;29.08;16.70;;;19.80;59.00;;;;;;5253455;26;20026;-68
2024/04/12 07:30:27;;;;;;;33.35;17.30;;;19.80;59.10;;;;;;5253477;26;20002;-70
2024/04/12 07:32:53;;;;;;;33.40;17.67;;;19.80;59.10;;;;;;5250871;26;20081;-71
2024/04/12 07:35:26;;;;;;;32.03;17.13;;;19.80;59.10;;;;;;5248265;26;20443;-71
2024/04/12 07:37:59;;;;;;;32.05;17.77;;;19.80;59.10;;;;;;5250926;26;20439;-71
2024/04/12 07:40:25;;;;;;;28.15;16.50;;;19.80;59.20;;;;;;5246753;26;20018;-70
2024/04/12 07:42:52;;;;;;;33.63;17.70;;;19.80;59.20;;;;;;5257070;26;20002;-70
2024/04/12 07:45:25;;;;;;;28.25;17.17;;;19.80;59.10;;;;;;5254333;26;20935;-70
2024/04/12 07:50:39;;;;;;;35.55;18.17;;;19.80;59.10;;;;;;5249603;26;20013;-69
2024/04/12 07:53:21;;;;;;;38.30;19.17;;;19.80;59.10;;;;;;5246035;26;20002;-69
2024/04/12 07:58:43;;;;;;;;;;;19.80;59.10;;;;;;5243856;26;20023;-69
2024/04/12 08:01:16;;;;;;;33.63;19.08;;;19.80;59.10;;;;;;5252858;26;19945;-70
2024/04/12 08:03:50;;;;;;;33.53;17.92;;;19.80;59.10;;;;;;5255524;26;19998;-72
2024/04/12 08:06:19;;;;;;;32.17;17.98;;;19.80;59.10;;;;;;5250290;26;20049;-72
2024/04/12 08:08:46;;;;;;;28.73;17.45;;;19.80;59.10;;;;;;5238230;26;20018;-69
2024/04/12 08:11:33;;;;;;;27.40;15.85;;;19.80;59.10;;;;;;5252002;26;20084;-69
2024/04/12 08:14:06;;;;;;;29.45;16.45;;;19.80;59.10;;;;;;5253650;26;20081;-70
2024/04/12 08:16:35;;;;;;;29.27;16.30;;;19.80;59.10;;;;;;5248001;26;20040;-70
2024/04/12 08:19:13;;;;;;;33.83;15.82;;;19.90;59.10;;;;;;5251514;26;19998;-69
2024/04/12 08:21:43;;;;;;;28.48;16.38;;;19.80;59.00;;;;;;5251153;26;20080;-69
2024/04/12 08:24:15;;;;;;;28.38;15.45;;;19.80;59.00;;;;;;5249236;26;20370;-68
2024/04/12 08:26:46;;;;;;;28.67;15.50;;;19.90;59.00;;;;;;5246996;26;20458;-69
2024/04/12 08:29:28;;;;;;;24.95;14.63;;;19.90;59.00;;;;;;5253746;26;20026;-69
2024/04/12 08:34:36;;;;;;;28.80;15.05;;;19.90;59.00;;;;;;5249954;26;20017;-69
2024/04/12 08:37:13;;;;;;;22.15;13.75;;;19.90;59.00;;;;;;5252870;26;20047;-69
2024/04/12 08:39:43;;;;;;;28.02;15.45;;;19.90;58.90;;;;;;5244978;26;19998;-67
2024/04/12 08:42:10;;;;;;;26.08;14.23;;;19.90;58.90;;;;;;5261884;26;20469;-69
2024/04/12 08:44:37;;;;;;;22.90;13.52;;;19.90;58.90;;;;;;5255507;26;20025;-69
2024/04/12 08:49:51;;;;;;;22.65;13.88;;;19.90;59.00;;;;;;5250285;26;21093;-70
2024/04/12 08:52:28;;;;;;;25.35;13.07;;;19.90;59.00;;;;;;5248860;26;20013;-70
2024/04/12 08:54:55;;;;;;;22.52;12.98;;;19.90;59.00;;;;;;5230536;26;20017;-70
2024/04/12 08:57:24;;;;;;;23.10;13.50;;;19.90;59.00;;;;;;5254303;26;20006;-69
2024/04/12 08:59:51;;;;;;;21.05;12.23;;;19.90;59.00;;;;;;5247098;26;20979;-70
2024/04/12 09:02:31;;;;;;;19.50;12.57;;;19.90;59.00;;;;;;5247343;26;20469;-69
2024/04/12 09:04:57;;;;;;;23.10;13.10;;;19.90;59.10;;;;;;5281069;26;20043;-70
2024/04/12 09:07:24;;;;;;;20.58;13.13;;;19.90;59.10;;;;;;5250353;26;20139;-69
2024/04/12 09:09:54;;;;;;;20.80;13.20;;;19.90;59.10;;;;;;5253758;26;20013;-70
2024/04/12 09:12:24;;;;;;;21.20;12.63;;;19.90;59.10;;;;;;5257342;26;20010;-69
2024/04/12 09:14:53;;;;;;;21.50;12.68;;;19.90;59.20;;;;;;5259545;26;20050;-69
2024/04/12 09:17:25;;;;;;;18.50;10.40;;;19.80;59.20;;;;;;5256349;26;20003;-68
2024/04/12 09:19:51;;;;;;;20.60;11.30;;;19.80;59.20;;;;;;5251414;26;20059;-70
2024/04/12 09:22:21;;;;;;;18.00;11.98;;;19.80;59.20;;;;;;5254073;26;20002;-69
2024/04/12 09:24:48;;;;;;;19.65;12.05;;;19.80;59.20;;;;;;5252320;26;20014;-69
2024/04/12 09:27:22;;;;;;;17.67;12.00;;;19.80;59.20;;;;;;5248773;26;20092;-67
2024/04/12 09:29:54;;;;;;;19.65;11.27;;;19.80;59.30;;;;;;5260188;26;20062;-70
2024/04/12 09:35:11;;;;;;;20.63;11.55;;;19.80;59.30;;;;;;5255581;26;20342;-70
2024/04/12 09:37:39;;;;;;;18.83;10.73;;;19.80;59.30;;;;;;5228416;26;20576;-69
2024/04/12 09:40:24;;;;;;;18.52;11.73;;;19.80;59.30;;;;;;5207966;26;19995;-69
2024/04/12 09:45:27;;;;;;;16.20;10.57;;;19.80;59.30;;;;;;5256203;26;20009;-69
2024/04/12 10:38:09;;;;;;;12.88;6.60;;;20.00;58.90;;;;;;5268018;26;20538;-69
2024/04/12 10:40:36;;;;;;;11.73;6.80;;;19.90;58.80;;;;;;5259470;26;20002;-70
2024/04/12 10:43:04;;;;;;;12.98;7.00;;;20.00;58.80;;;;;;5269480;26;20509;-69
2024/04/12 10:45:30;;;;;;;12.00;6.63;;;20.00;58.80;;;;;;5279390;26;20002;-70
2024/04/12 10:47:56;;;;;;;11.38;6.85;;;20.00;58.80;;;;;;5274160;26;20505;-69
2024/04/12 10:50:23;;;;;;;10.77;6.32;;;20.00;58.80;;;;;;5268508;26;20539;-70
2024/04/12 10:52:49;;;;;;;10.77;6.30;;;20.00;58.80;;;;;;5261541;26;20393;-68
2024/04/12 10:55:19;;;;;;;10.63;6.78;;;20.00;58.80;;;;;;5260635;26;20021;-69
2024/04/12 10:57:49;;;;;;;10.40;5.43;;;20.00;58.70;;;;;;5281769;26;20006;-69
2024/04/12 11:00:27;;;;;;;11.52;5.68;;;20.00;58.70;;;;;;5260352;26;20018;-69
2024/04/12 11:02:59;;;;;;;9.57;5.55;;;20.00;58.70;;;;;;5281213;26;20006;-70
2024/04/12 11:05:38;;;;;;;8.95;5.55;;;20.00;58.60;;;;;;5281214;26;20021;-69
2024/04/12 11:08:08;;;;;;;9.05;5.25;;;20.10;58.70;;;;;;5270629;26;20014;-70
2024/04/12 11:10:40;;;;;;;6.90;4.88;;;20.00;58.60;;;;;;5261134;26;20436;-70
2024/04/12 11:13:08;;;;;;;10.98;5.20;;;20.00;58.60;;;;;;5271260;26;20140;-71
2024/04/12 11:32:12;;;;;;;5.78;4.30;;;20.10;58.60;;;;;;5218531;26;19995;-70
2024/04/12 11:34:40;;;;;;;7.55;4.75;;;20.00;58.50;;;;;;5241135;26;20003;-70
2024/04/12 11:37:08;;;;;;;7.03;3.67;;;20.10;58.60;;;;;;5241857;26;20025;-71
2024/04/12 11:39:36;;;;;;;7.65;3.90;;;20.10;58.50;;;;;;5254999;26;20002;-69
2024/04/12 11:42:03;;;;;;;6.88;4.10;;;20.10;58.40;;;;;;5248483;26;19995;-69
2024/04/12 11:44:29;;;;;;;6.57;3.55;;;20.10;58.40;;;;;;5261622;26;20337;-68
2024/04/12 11:47:02;;;;;;;7.93;4.18;;;20.10;58.40;;;;;;5259024;26;20052;-69
2024/04/12 11:49:27;;;;;;;6.28;3.17;;;20.10;58.50;;;;;;5241806;26;20524;-68
2024/04/12 11:51:55;;;;;;;4.63;3.53;;;20.10;58.50;;;;;;5250989;26;20450;-70
2024/04/12 11:54:29;;;;;;;7.68;4.72;;;20.10;58.50;;;;;;5237443;26;20458;-70
2024/04/12 11:56:54;;;;;;;5.03;3.28;;;20.10;58.60;;;;;;5235139;26;20012;-69
2024/04/12 11:59:21;;;;;;;5.78;3.10;;;20.10;58.40;;;;;;5246961;26;20007;-69
2024/04/12 12:01:47;;;;;;;6.53;3.30;;;20.10;58.50;;;;;;5240568;26;20567;-70
2024/04/12 12:04:12;;;;;;;5.32;3.17;;;20.10;58.50;;;;;;5240635;26;20094;-69
2024/04/12 12:06:38;;;;;;;5.55;3.40;;;20.10;58.50;;;;;;5251724;26;20017;-68
2024/04/12 12:09:11;;;;;;;3.90;2.80;;;20.10;58.40;;;;;;5246557;26;20171;-68
2024/04/12 12:11:43;;;;;;;4.43;3.25;;;20.10;58.50;;;;;;5251837;26;20022;-68
2024/04/12 12:14:09;;;;;;;5.53;3.25;;;20.10;58.50;;;;;;5237562;26;20018;-68
2024/04/12 12:16:34;;;;;;;5.22;2.80;;;20.10;58.40;;;;;;5245977;26;20015;-69
2024/04/12 12:18:59;;;;;;;3.10;2.42;;;20.10;58.40;;;;;;5248917;26;20440;-70
2024/04/12 12:21:25;;;;;;;3.90;2.55;;;20.10;58.40;;;;;;5250071;26;20077;-70
2024/04/12 12:23:51;;;;;;;3.80;2.97;;;20.10;58.40;;;;;;5256004;26;20483;-68
2024/04/12 12:26:16;;;;;;;3.92;2.70;;;20.10;58.40;;;;;;5242938;26;20003;-70
2024/04/12 12:28:42;;;;;;;3.28;2.60;;;20.10;58.40;;;;;;5255011;26;20397;-70
2024/04/12 12:31:07;;;;;;;3.08;2.38;;;20.20;58.30;;;;;;5256524;26;20017;-69
2024/04/12 12:33:38;;;;;;;4.90;3.03;;;20.20;58.30;;;;;;5251412;26;20003;-70
2024/04/12 12:36:05;;;;;;;3.00;2.13;;;20.20;58.30;;;;;;5247297;26;20065;-69
2024/04/12 12:38:32;;;;;;;4.63;2.42;;;20.10;58.30;;;;;;5251983;26;20038;-69
2024/04/12 12:40:58;;;;;;;2.90;2.08;;;20.10;58.40;;;;;;5260204;26;20006;-70
2024/04/12 12:43:26;;;;;;;3.40;2.28;;;20.10;58.40;;;;;;5259971;26;20013;-71
2024/04/12 12:45:52;;;;;;;4.78;2.60;;;20.10;58.40;;;;;;5254626;26;20013;-72
2024/04/12 12:48:21;;;;;;;3.00;2.20;;;20.10;58.40;;;;;;5264513;26;20039;-70
2024/04/12 12:50:47;;;;;;;4.90;2.40;;;20.10;58.50;;;;;;5249106;26;20359;-71
2024/04/12 12:53:12;;;;;;;4.72;2.28;;;20.10;58.60;;;;;;5253637;26;20794;-70
2024/04/12 12:55:39;;;;;;;2.92;2.22;;;20.10;58.70;;;;;;5247229;26;20007;-71
2024/04/12 12:58:11;;;;;;;3.08;1.92;;;20.10;58.60;;;;;;5259580;26;20456;-69
2024/04/12 13:00:42;;;;;;;3.05;2.20;;;20.10;58.60;;;;;;5254952;26;20138;-69
2024/04/12 13:03:11;;;;;;;3.15;2.30;;;20.10;58.60;;;;;;5249448;26;20019;-70
2024/04/12 13:05:38;;;;;;;4.05;2.10;;;20.10;58.60;;;;;;5263059;26;22661;-72
2024/04/12 13:08:05;;;;;;;3.25;1.88;;;20.10;58.70;;;;;;5254484;26;20084;-71
2024/04/12 13:10:33;;;;;;;3.70;2.15;;;20.10;58.80;;;;;;5254710;26;20002;-70
2024/04/12 13:13:04;;;;;;;2.65;1.88;;;20.10;58.70;;;;;;5260019;26;20002;-71
2024/04/12 13:15:29;;;;;;;2.15;1.85;;;20.10;58.80;;;;;;5254127;26;20002;-71
2024/04/12 13:17:56;;;;;;;2.47;1.90;;;20.10;58.80;;;;;;5256262;26;20013;-71
2024/04/12 13:20:21;;;;;;;3.17;2.22;;;20.10;58.80;;;;;;5248691;26;20458;-72
2024/04/12 13:22:47;;;;;;;3.78;2.00;;;20.20;58.80;;;;;;5289860;26;20014;-71
2024/04/12 13:25:14;;;;;;;2.92;1.98;;;20.10;58.80;;;;;;5260382;26;20020;-71
2024/04/12 13:27:51;;;;;;;2.30;1.80;;;20.10;59.40;;;;;;5252647;26;20059;-70
2024/04/12 13:30:17;;;;;;;2.80;2.42;;;20.10;58.70;;;;;;5222947;26;20014;-71
2024/04/12 13:32:47;;;;;;;3.30;1.98;;;20.20;58.80;;;;;;5258621;26;20017;-71
2024/04/12 13:35:13;;;;;;;2.17;1.77;;;20.20;58.80;;;;;;5252743;26;20046;-70
2024/04/12 13:37:39;;;;;;;4.70;2.00;;;20.10;58.70;;;;;;5256217;26;20003;-71
2024/04/12 13:40:08;;;;;;;3.05;1.95;;;20.10;58.80;;;;;;5251876;26;20014;-71
2024/04/12 13:42:39;;;;;;;3.55;1.70;;;20.20;58.80;;;;;;5254963;26;20089;-71
2024/04/12 13:53:19;;;;;;;3.47;1.90;;;20.20;58.80;;;;;;5262561;26;20640;-69
2024/04/12 13:55:46;;;;;;;2.65;1.75;;;20.20;58.90;;;;;;5264111;26;20006;-71
2024/04/12 13:58:12;;;;;;;3.13;1.80;;;20.20;58.90;;;;;;5263782;26;21425;-71
2024/04/12 14:00:48;;;;;;;2.53;1.67;;;20.20;58.90;;;;;;5257233;26;20362;-71
2024/04/12 14:03:21;;;;;;;1.73;1.52;;;20.20;58.90;;;;;;5259547;26;20021;-71
2024/04/12 14:05:52;;;;;;;1.92;1.55;;;20.20;58.90;;;;;;5248727;26;20061;-71
2024/04/12 14:08:20;;;;;;;2.22;1.50;;;20.20;58.90;;;;;;5255677;26;20061;-71
2024/04/12 14:10:46;;;;;;;2.47;1.73;;;20.20;58.90;;;;;;5263526;26;20402;-69
2024/04/12 14:13:17;;;;;;;3.10;1.70;;;20.20;58.90;;;;;;5261509;26;20076;-68
2024/04/12 14:15:43;;;;;;;2.72;1.75;;;20.20;58.90;;;;;;5254560;26;20483;-68
2024/04/12 14:18:08;;;;;;;2.50;1.42;;;20.20;58.90;;;;;;5257204;26;20006;-69
2024/04/12 14:20:34;;;;;;;2.58;1.63;;;20.20;58.90;;;;;;5258698;26;20033;-68
2024/04/12 14:22:59;;;;;;;1.95;1.58;;;20.20;58.90;;;;;;5257962;26;20035;-69
2024/04/12 14:25:26;;;;;;;2.25;1.52;;;20.20;58.90;;;;;;5256244;26;20442;-70
2024/04/12 14:27:52;;;;;;;2.05;1.70;;;20.20;59.00;;;;;;5268296;26;20350;-71